sensor_id;sensor_type;location;lat;lon;timestamp;pressure;altitude;pressure_sealevel;temperature;humidity
63808;BME280;49961;43.970;22.868;2023-06-22T00:00:27;101615.63;;;22.54;100.00
63808;BME280;49961;43.970;22.868;2023-06-22T00:01:28;101627.59;;;22.49;100.00
63808;BME280;49961;43.970;22.868;2023-06-22T00:02:28;101625.94;;;22.42;100.00
63808;BME280;49961;43.970;22.868;2023-06-22T00:03:28;101620.97;;;22.37;100.00
63808;BME280;49961;43.970;22.868;2023-06-22T00:04:29;101634.59;;;22.39;100.00
63808;BME280;49961;43.970;22.868;2023-06-22T00:05:29;101640.75;;;22.37;100.00
63808;BME280;49961;43.970;22.868;2023-06-22T00:06:30;101640.28;;;22.24;100.00
63808;BME280;49961;43.970;22.868;2023-06-22T00:07:30;101643.31;;;22.21;100.00
63808;BME280;49961;43.970;22.868;2023-06-22T00:08:30;101629.41;;;22.17;100.00
63808;BME280;49961;43.970;22.868;2023-06-22T00:09:31;101643.19;;;22.30;100.00
63808;BME280;49961;43.970;22.868;2023-06-22T00:10:32;101589.09;;;21.88;100.00
63808;BME280;49961;43.970;22.868;2023-06-22T00:11:33;101641.44;;;22.32;100.00
63808;BME280;49961;43.970;22.868;2023-06-22T00:12:34;101647.19;;;22.38;100.00
63808;BME280;49961;43.970;22.868;2023-06-22T00:13:34;101648.72;;;22.39;100.00
63808;BME280;49961;43.970;22.868;2023-06-22T00:14:34;101641.81;;;22.40;100.00
63808;BME280;49961;43.970;22.868;2023-06-22T00:15:36;101646.03;;;22.44;100.00
63808;BME280;49961;43.970;22.868;2023-06-22T00:16:37;101641.63;;;22.43;100.00
63808;BME280;49961;43.970;22.868;2023-06-22T00:17:38;101645.69;;;22.42;100.00
63808;BME280;49961;43.970;22.868;2023-06-22T00:18:38;101640.56;;;22.41;100.00
63808;BME280;49961;43.970;22.868;2023-06-22T00:19:39;101639.28;;;22.42;100.00
63808;BME280;49961;43.970;22.868;2023-06-22T00:20:41;101638.31;;;22.45;100.00
63808;BME280;49961;43.970;22.868;2023-06-22T00:21:42;101620.78;;;22.41;100.00
63808;BME280;49961;43.970;22.868;2023-06-22T00:22:43;101631.69;;;22.48;100.00
63808;BME280;49961;43.970;22.868;2023-06-22T00:23:44;101616.69;;;22.42;100.00
63808;BME280;49961;43.970;22.868;2023-06-22T00:24:44;101638.16;;;22.48;100.00
63808;BME280;49961;43.970;22.868;2023-06-22T00:25:45;101629.66;;;22.48;100.00
63808;BME280;49961;43.970;22.868;2023-06-22T00:26:45;101621.19;;;22.48;100.00
63808;BME280;49961;43.970;22.868;2023-06-22T00:27:46;101626.31;;;22.50;100.00
63808;BME280;49961;43.970;22.868;2023-06-22T00:28:47;101633.56;;;22.51;100.00
63808;BME280;49961;43.970;22.868;2023-06-22T00:29:47;101633.56;;;22.51;100.00
63808;BME280;49961;43.970;22.868;2023-06-22T00:30:50;101638.41;;;22.50;100.00
63808;BME280;49961;43.970;22.868;2023-06-22T00:31:51;101646.41;;;22.52;100.00
63808;BME280;49961;43.970;22.868;2023-06-22T00:32:51;101647.97;;;22.53;100.00
63808;BME280;49961;43.970;22.868;2023-06-22T00:33:52;101641.53;;;22.52;100.00
63808;BME280;49961;43.970;22.868;2023-06-22T00:34:52;101650.78;;;22.53;100.00
63808;BME280;49961;43.970;22.868;2023-06-22T00:35:52;101651.28;;;22.51;100.00
63808;BME280;49961;43.970;22.868;2023-06-22T00:36:54;101642.13;;;22.42;100.00
63808;BME280;49961;43.970;22.868;2023-06-22T00:37:58;101661.09;;;22.41;100.00
63808;BME280;49961;43.970;22.868;2023-06-22T00:39:00;101569.22;;;21.68;100.00
63808;BME280;49961;43.970;22.868;2023-06-22T00:40:02;101588.03;;;21.71;100.00
63808;BME280;49961;43.970;22.868;2023-06-22T00:41:03;101648.00;;;22.09;100.00
63808;BME280;49961;43.970;22.868;2023-06-22T00:42:04;101642.22;;;22.04;100.00
63808;BME280;49961;43.970;22.868;2023-06-22T00:43:05;101662.50;;;22.17;100.00
63808;BME280;49961;43.970;22.868;2023-06-22T00:44:05;101661.69;;;22.16;100.00
63808;BME280;49961;43.970;22.868;2023-06-22T00:45:09;101658.66;;;22.20;100.00
63808;BME280;49961;43.970;22.868;2023-06-22T00:46:09;101662.28;;;22.20;100.00
63808;BME280;49961;43.970;22.868;2023-06-22T00:47:10;101524.38;;;21.26;100.00
63808;BME280;49961;43.970;22.868;2023-06-22T00:48:14;101618.69;;;21.92;100.00
63808;BME280;49961;43.970;22.868;2023-06-22T00:49:14;101621.53;;;21.92;100.00
63808;BME280;49961;43.970;22.868;2023-06-22T00:50:19;101672.03;;;22.19;100.00
63808;BME280;49961;43.970;22.868;2023-06-22T00:51:21;101676.50;;;22.11;100.00
63808;BME280;49961;43.970;22.868;2023-06-22T00:52:24;101675.63;;;22.05;100.00
63808;BME280;49961;43.970;22.868;2023-06-22T00:53:29;101676.09;;;22.04;100.00
63808;BME280;49961;43.970;22.868;2023-06-22T00:54:30;101681.00;;;22.03;100.00
63808;BME280;49961;43.970;22.868;2023-06-22T00:55:30;101665.00;;;22.00;100.00
63808;BME280;49961;43.970;22.868;2023-06-22T00:56:32;101674.56;;;22.03;100.00
63808;BME280;49961;43.970;22.868;2023-06-22T00:57:32;101675.72;;;21.96;100.00
63808;BME280;49961;43.970;22.868;2023-06-22T00:58:33;101670.94;;;21.88;100.00
63808;BME280;49961;43.970;22.868;2023-06-22T00:59:33;101675.91;;;21.93;100.00
63808;BME280;49961;43.970;22.868;2023-06-22T01:00:34;101631.97;;;21.63;100.00
63808;BME280;49961;43.970;22.868;2023-06-22T01:01:34;101681.56;;;21.93;100.00
63808;BME280;49961;43.970;22.868;2023-06-22T01:02:41;101673.56;;;21.91;100.00
63808;BME280;49961;43.970;22.868;2023-06-22T01:03:41;101681.47;;;21.87;100.00
63808;BME280;49961;43.970;22.868;2023-06-22T01:04:42;101678.06;;;21.83;100.00
63808;BME280;49961;43.970;22.868;2023-06-22T01:05:42;101665.56;;;21.75;100.00
63808;BME280;49961;43.970;22.868;2023-06-22T01:07:02;101629.31;;;21.45;100.00
63808;BME280;49961;43.970;22.868;2023-06-22T01:08:27;101662.47;;;21.73;100.00
63808;BME280;49961;43.970;22.868;2023-06-22T01:09:32;101653.22;;;21.73;100.00
63808;BME280;49961;43.970;22.868;2023-06-22T01:11:42;101648.72;;;21.66;100.00
63808;BME280;49961;43.970;22.868;2023-06-22T01:12:52;101549.81;;;21.03;100.00
63808;BME280;49961;43.970;22.868;2023-06-22T01:14:06;101665.28;;;21.73;100.00
63808;BME280;49961;43.970;22.868;2023-06-22T01:15:14;101658.38;;;21.74;100.00
63808;BME280;49961;43.970;22.868;2023-06-22T01:16:29;101660.72;;;21.76;100.00
63808;BME280;49961;43.970;22.868;2023-06-22T01:17:30;101665.56;;;21.75;100.00
63808;BME280;49961;43.970;22.868;2023-06-22T01:18:35;101651.47;;;21.75;100.00
63808;BME280;49961;43.970;22.868;2023-06-22T01:19:47;101660.53;;;21.79;100.00
63808;BME280;49961;43.970;22.868;2023-06-22T01:20:54;101591.78;;;21.39;100.00
63808;BME280;49961;43.970;22.868;2023-06-22T01:21:58;101547.88;;;21.09;100.00
63808;BME280;49961;43.970;22.868;2023-06-22T01:25:47;101648.44;;;21.79;100.00
63808;BME280;49961;43.970;22.868;2023-06-22T01:29:15;101647.97;;;21.80;100.00
63808;BME280;49961;43.970;22.868;2023-06-22T01:30:16;101647.88;;;21.75;100.00
63808;BME280;49961;43.970;22.868;2023-06-22T01:31:21;101553.19;;;21.07;100.00
63808;BME280;49961;43.970;22.868;2023-06-22T01:32:22;101652.50;;;21.63;100.00
63808;BME280;49961;43.970;22.868;2023-06-22T01:33:22;101656.13;;;21.64;100.00
63808;BME280;49961;43.970;22.868;2023-06-22T01:34:23;101584.03;;;21.10;100.00
63808;BME280;49961;43.970;22.868;2023-06-22T01:35:24;101663.94;;;21.69;100.00
63808;BME280;49961;43.970;22.868;2023-06-22T01:36:26;101660.59;;;21.70;100.00
63808;BME280;49961;43.970;22.868;2023-06-22T01:37:28;101663.25;;;21.74;100.00
63808;BME280;49961;43.970;22.868;2023-06-22T01:38:30;101589.81;;;21.30;100.00
63808;BME280;49961;43.970;22.868;2023-06-22T01:39:31;101671.53;;;21.77;100.00
63808;BME280;49961;43.970;22.868;2023-06-22T01:40:33;101660.53;;;21.79;100.00
63808;BME280;49961;43.970;22.868;2023-06-22T01:41:37;101638.53;;;21.69;100.00
63808;BME280;49961;43.970;22.868;2023-06-22T01:42:38;101656.44;;;21.80;100.00
63808;BME280;49961;43.970;22.868;2023-06-22T01:43:39;101653.94;;;21.82;100.00
63808;BME280;49961;43.970;22.868;2023-06-22T01:44:40;101650.59;;;21.84;100.00
63808;BME280;49961;43.970;22.868;2023-06-22T01:45:41;101646.53;;;21.85;100.00
63808;BME280;49961;43.970;22.868;2023-06-22T01:46:42;101651.38;;;21.84;100.00
63808;BME280;49961;43.970;22.868;2023-06-22T01:47:43;101654.69;;;21.83;100.00
63808;BME280;49961;43.970;22.868;2023-06-22T01:48:44;101655.75;;;21.85;100.00
63808;BME280;49961;43.970;22.868;2023-06-22T01:49:45;101665.00;;;21.86;100.00
63808;BME280;49961;43.970;22.868;2023-06-22T01:50:47;101652.06;;;21.79;100.00
63808;BME280;49961;43.970;22.868;2023-06-22T01:51:47;101658.19;;;21.78;100.00
63808;BME280;49961;43.970;22.868;2023-06-22T01:52:48;101659.38;;;21.71;100.00
63808;BME280;49961;43.970;22.868;2023-06-22T01:53:48;101650.47;;;21.64;100.00
63808;BME280;49961;43.970;22.868;2023-06-22T01:54:49;101531.16;;;20.82;100.00
63808;BME280;49961;43.970;22.868;2023-06-22T01:55:49;101673.47;;;21.71;100.00
63808;BME280;49961;43.970;22.868;2023-06-22T01:56:49;101610.13;;;21.34;100.00
63808;BME280;49961;43.970;22.868;2023-06-22T01:57:50;101679.41;;;21.73;100.00
63808;BME280;49961;43.970;22.868;2023-06-22T01:59:11;101610.03;;;21.29;100.00
63808;BME280;49961;43.970;22.868;2023-06-22T02:00:17;101607.41;;;21.25;100.00
63808;BME280;49961;43.970;22.868;2023-06-22T02:01:23;101676.84;;;21.75;100.00
63808;BME280;49961;43.970;22.868;2023-06-22T02:02:28;101685.84;;;21.74;100.00
63808;BME280;49961;43.970;22.868;2023-06-22T02:03:37;101686.31;;;21.72;100.00
63808;BME280;49961;43.970;22.868;2023-06-22T02:04:52;101705.75;;;21.70;100.00
63808;BME280;49961;43.970;22.868;2023-06-22T02:06:08;101695.88;;;21.66;100.00
63808;BME280;49961;43.970;22.868;2023-06-22T02:07:13;101624.59;;;21.13;100.00
63808;BME280;49961;43.970;22.868;2023-06-22T02:08:22;101701.38;;;21.46;100.00
63808;BME280;49961;43.970;22.868;2023-06-22T02:09:25;101704.50;;;21.48;100.00
63808;BME280;49961;43.970;22.868;2023-06-22T02:10:29;101701.09;;;21.44;100.00
63808;BME280;49961;43.970;22.868;2023-06-22T02:11:31;101707.69;;;21.41;100.00
63808;BME280;49961;43.970;22.868;2023-06-22T02:12:34;101676.06;;;21.13;100.00
63808;BME280;49961;43.970;22.868;2023-06-22T02:13:37;101704.25;;;21.37;100.00
63808;BME280;49961;43.970;22.868;2023-06-22T02:14:41;101705.81;;;21.38;100.00
63808;BME280;49961;43.970;22.868;2023-06-22T02:15:42;101565.59;;;20.53;100.00
63808;BME280;49961;43.970;22.868;2023-06-22T02:16:42;101701.75;;;21.39;100.00
63808;BME280;49961;43.970;22.868;2023-06-22T02:17:43;101636.56;;;20.99;100.00
63808;BME280;49961;43.970;22.868;2023-06-22T02:18:49;101698.16;;;21.38;100.00
63808;BME280;49961;43.970;22.868;2023-06-22T02:19:52;101701.75;;;21.39;100.00
63808;BME280;49961;43.970;22.868;2023-06-22T02:20:53;101701.44;;;21.37;100.00
63808;BME280;49961;43.970;22.868;2023-06-22T02:21:53;101701.44;;;21.37;100.00
63808;BME280;49961;43.970;22.868;2023-06-22T02:22:54;101684.91;;;21.30;100.00
63808;BME280;49961;43.970;22.868;2023-06-22T02:23:54;101698.63;;;21.37;100.00
63808;BME280;49961;43.970;22.868;2023-06-22T02:24:56;101703.97;;;21.35;100.00
63808;BME280;49961;43.970;22.868;2023-06-22T02:25:56;101698.03;;;21.33;100.00
63808;BME280;49961;43.970;22.868;2023-06-22T02:26:57;101676.72;;;21.08;100.00
63808;BME280;49961;43.970;22.868;2023-06-22T02:27:58;101699.59;;;21.34;100.00
63808;BME280;49961;43.970;22.868;2023-06-22T02:28:58;101700.25;;;21.29;100.00
63808;BME280;49961;43.970;22.868;2023-06-22T02:29:59;101701.81;;;21.30;100.00
63808;BME280;49961;43.970;22.868;2023-06-22T02:30:59;101703.06;;;21.29;100.00
63808;BME280;49961;43.970;22.868;2023-06-22T02:32:00;101704.50;;;21.24;100.00
63808;BME280;49961;43.970;22.868;2023-06-22T02:33:00;101705.00;;;21.23;100.00
63808;BME280;49961;43.970;22.868;2023-06-22T02:34:00;101703.41;;;21.22;100.00
63808;BME280;49961;43.970;22.868;2023-06-22T02:35:01;101700.59;;;21.22;100.00
63808;BME280;49961;43.970;22.868;2023-06-22T02:36:05;101696.22;;;21.21;100.00
63808;BME280;49961;43.970;22.868;2023-06-22T02:37:09;101701.09;;;21.20;100.00
63808;BME280;49961;43.970;22.868;2023-06-22T02:38:10;101707.97;;;21.19;100.00
63808;BME280;49961;43.970;22.868;2023-06-22T02:39:11;101704.41;;;21.19;100.00
63808;BME280;49961;43.970;22.868;2023-06-22T02:40:12;101707.69;;;21.17;100.00
63808;BME280;49961;43.970;22.868;2023-06-22T02:41:13;101690.81;;;21.08;100.00
63808;BME280;49961;43.970;22.868;2023-06-22T02:42:14;101707.56;;;21.12;100.00
63808;BME280;49961;43.970;22.868;2023-06-22T02:43:15;101714.03;;;21.03;100.00
63808;BME280;49961;43.970;22.868;2023-06-22T02:44:16;101614.38;;;20.36;100.00
63808;BME280;49961;43.970;22.868;2023-06-22T02:45:16;101709.66;;;21.02;100.00
63808;BME280;49961;43.970;22.868;2023-06-22T02:46:17;101717.31;;;21.02;100.00
63808;BME280;49961;43.970;22.868;2023-06-22T02:47:17;101711.69;;;21.02;100.00
63808;BME280;49961;43.970;22.868;2023-06-22T02:48:17;101716.38;;;21.05;100.00
63808;BME280;49961;43.970;22.868;2023-06-22T02:49:18;101713.25;;;21.03;100.00
63808;BME280;49961;43.970;22.868;2023-06-22T02:50:18;101708.72;;;21.05;100.00
63808;BME280;49961;43.970;22.868;2023-06-22T02:51:19;101721.53;;;21.06;100.00
63808;BME280;49961;43.970;22.868;2023-06-22T02:52:19;101716.38;;;21.05;100.00
63808;BME280;49961;43.970;22.868;2023-06-22T02:53:19;101711.03;;;21.07;100.00
63808;BME280;49961;43.970;22.868;2023-06-22T02:54:21;101725.72;;;21.11;100.00
63808;BME280;49961;43.970;22.868;2023-06-22T02:55:21;101722.91;;;21.11;100.00
63808;BME280;49961;43.970;22.868;2023-06-22T02:56:22;101722.16;;;21.10;100.00
63808;BME280;49961;43.970;22.868;2023-06-22T02:57:25;101720.09;;;21.11;100.00
63808;BME280;49961;43.970;22.868;2023-06-22T02:58:25;101710.88;;;21.10;100.00
63808;BME280;49961;43.970;22.868;2023-06-22T02:59:26;101709.28;;;21.09;100.00
63808;BME280;49961;43.970;22.868;2023-06-22T03:00:26;101709.00;;;21.07;100.00
63808;BME280;49961;43.970;22.868;2023-06-22T03:01:30;101710.25;;;21.06;100.00
63808;BME280;49961;43.970;22.868;2023-06-22T03:02:31;101711.81;;;21.07;100.00
63808;BME280;49961;43.970;22.868;2023-06-22T03:03:31;101717.63;;;21.04;100.00
63808;BME280;49961;43.970;22.868;2023-06-22T03:04:32;101600.44;;;20.32;100.00
63808;BME280;49961;43.970;22.868;2023-06-22T03:05:32;101722.50;;;21.03;100.00
63808;BME280;49961;43.970;22.868;2023-06-22T03:06:33;101661.31;;;20.62;100.00
63808;BME280;49961;43.970;22.868;2023-06-22T03:07:33;101709.22;;;20.95;100.00
63808;BME280;49961;43.970;22.868;2023-06-22T03:08:34;101715.94;;;20.97;100.00
63808;BME280;49961;43.970;22.868;2023-06-22T03:09:34;101717.97;;;20.97;100.00
63808;BME280;49961;43.970;22.868;2023-06-22T03:10:35;101702.66;;;20.89;100.00
63808;BME280;49961;43.970;22.868;2023-06-22T03:11:35;101702.41;;;20.78;100.00
63808;BME280;49961;43.970;22.868;2023-06-22T03:12:37;101706.59;;;20.91;100.00
63808;BME280;49961;43.970;22.868;2023-06-22T03:13:38;101726.28;;;21.00;100.00
63808;BME280;49961;43.970;22.868;2023-06-22T03:14:38;101724.22;;;21.01;100.00
63808;BME280;49961;43.970;22.868;2023-06-22T03:15:39;101652.91;;;20.53;100.00
63808;BME280;49961;43.970;22.868;2023-06-22T03:16:39;101731.25;;;21.05;100.00
63808;BME280;49961;43.970;22.868;2023-06-22T03:17:41;101724.53;;;21.03;100.00
63808;BME280;49961;43.970;22.868;2023-06-22T03:18:41;101718.72;;;21.06;100.00
63808;BME280;49961;43.970;22.868;2023-06-22T03:19:42;101715.59;;;21.04;100.00
63808;BME280;49961;43.970;22.868;2023-06-22T03:20:42;101716.84;;;21.03;100.00
63808;BME280;49961;43.970;22.868;2023-06-22T03:21:42;101713.25;;;21.03;100.00
63808;BME280;49961;43.970;22.868;2023-06-22T03:22:43;101720.13;;;21.02;100.00
63808;BME280;49961;43.970;22.868;2023-06-22T03:23:43;101720.63;;;21.00;100.00
63808;BME280;49961;43.970;22.868;2023-06-22T03:24:44;101699.97;;;20.94;100.00
63808;BME280;49961;43.970;22.868;2023-06-22T03:25:44;101697.47;;;20.96;100.00
63808;BME280;49961;43.970;22.868;2023-06-22T03:26:45;101707.75;;;21.08;100.00
63808;BME280;49961;43.970;22.868;2023-06-22T03:27:46;101710.56;;;21.08;100.00
63808;BME280;49961;43.970;22.868;2023-06-22T03:28:48;101712.75;;;21.04;100.00
63808;BME280;49961;43.970;22.868;2023-06-22T03:29:48;101710.75;;;21.05;100.00
63808;BME280;49961;43.970;22.868;2023-06-22T03:30:49;101714.16;;;21.09;100.00
63808;BME280;49961;43.970;22.868;2023-06-22T03:31:49;101714.16;;;21.09;100.00
63808;BME280;49961;43.970;22.868;2023-06-22T03:32:49;101716.34;;;21.14;100.00
63808;BME280;49961;43.970;22.868;2023-06-22T03:33:50;101707.88;;;21.14;100.00
63808;BME280;49961;43.970;22.868;2023-06-22T03:34:50;101714.59;;;21.16;100.00
63808;BME280;49961;43.970;22.868;2023-06-22T03:35:51;101706.91;;;21.17;100.00
63808;BME280;49961;43.970;22.868;2023-06-22T03:36:51;101715.34;;;21.17;100.00
63808;BME280;49961;43.970;22.868;2023-06-22T03:37:52;101649.53;;;20.73;100.00
63808;BME280;49961;43.970;22.868;2023-06-22T03:38:52;101717.03;;;21.23;100.00
63808;BME280;49961;43.970;22.868;2023-06-22T03:39:53;101720.19;;;21.25;100.00
63808;BME280;49961;43.970;22.868;2023-06-22T03:40:54;101706.75;;;21.20;100.00
63808;BME280;49961;43.970;22.868;2023-06-22T03:41:54;101719.81;;;21.32;100.00
63808;BME280;49961;43.970;22.868;2023-06-22T03:42:55;101718.34;;;21.37;100.00
63808;BME280;49961;43.970;22.868;2023-06-22T03:43:55;101703.19;;;21.34;100.00
63808;BME280;49961;43.970;22.868;2023-06-22T03:44:56;101721.41;;;21.48;100.00
63808;BME280;49961;43.970;22.868;2023-06-22T03:45:56;101710.44;;;21.50;100.00
63808;BME280;49961;43.970;22.868;2023-06-22T03:46:57;101716.69;;;21.54;100.00
63808;BME280;49961;43.970;22.868;2023-06-22T03:47:57;101694.78;;;21.49;100.00
63808;BME280;49961;43.970;22.868;2023-06-22T03:48:57;101684.66;;;21.42;100.00
63808;BME280;49961;43.970;22.868;2023-06-22T03:49:58;101715.50;;;21.60;100.00
63808;BME280;49961;43.970;22.868;2023-06-22T03:50:59;101709.72;;;21.64;100.00
63808;BME280;49961;43.970;22.868;2023-06-22T03:52:01;101717.97;;;21.67;100.00
63808;BME280;49961;43.970;22.868;2023-06-22T03:53:04;101717.34;;;21.72;100.00
63808;BME280;49961;43.970;22.868;2023-06-22T03:54:05;101728.72;;;21.78;100.00
63808;BME280;49961;43.970;22.868;2023-06-22T03:55:06;101726.50;;;21.82;100.00
63808;BME280;49961;43.970;22.868;2023-06-22T03:56:07;101663.94;;;21.45;100.00
63808;BME280;49961;43.970;22.868;2023-06-22T03:57:07;101720.84;;;21.82;100.00
63808;BME280;49961;43.970;22.868;2023-06-22T03:58:07;101694.34;;;21.65;100.00
63808;BME280;49961;43.970;22.868;2023-06-22T03:59:09;101724.28;;;21.86;100.00
63808;BME280;49961;43.970;22.868;2023-06-22T04:00:10;101727.69;;;21.90;100.00
63808;BME280;49961;43.970;22.868;2023-06-22T04:01:11;101729.72;;;21.89;100.00
63808;BME280;49961;43.970;22.868;2023-06-22T04:02:11;101738.19;;;21.89;100.00
63808;BME280;49961;43.970;22.868;2023-06-22T04:03:12;101736.63;;;21.88;100.00
63808;BME280;49961;43.970;22.868;2023-06-22T04:04:13;101734.09;;;21.90;100.00
63808;BME280;49961;43.970;22.868;2023-06-22T04:05:13;101733.63;;;21.92;100.00
63808;BME280;49961;43.970;22.868;2023-06-22T04:06:14;101732.16;;;21.96;100.00
63808;BME280;49961;43.970;22.868;2023-06-22T04:07:14;101727.50;;;21.93;100.00
63808;BME280;49961;43.970;22.868;2023-06-22T04:08:15;101744.53;;;21.99;100.00
63808;BME280;49961;43.970;22.868;2023-06-22T04:09:15;101723.41;;;21.94;100.00
63808;BME280;49961;43.970;22.868;2023-06-22T04:10:16;101682.22;;;21.73;100.00
63808;BME280;49961;43.970;22.868;2023-06-22T04:11:17;101728.19;;;22.03;100.00
63808;BME280;49961;43.970;22.868;2023-06-22T04:12:18;101734.44;;;22.07;100.00
63808;BME280;49961;43.970;22.868;2023-06-22T04:13:19;101735.97;;;22.08;100.00
63808;BME280;49961;43.970;22.868;2023-06-22T04:14:19;101738.59;;;22.11;100.00
63808;BME280;49961;43.970;22.868;2023-06-22T04:15:20;101740.94;;;22.13;100.00
63808;BME280;49961;43.970;22.868;2023-06-22T04:16:20;101733.47;;;22.10;100.00
63808;BME280;49961;43.970;22.868;2023-06-22T04:17:20;101739.69;;;22.14;100.00
63808;BME280;49961;43.970;22.868;2023-06-22T04:18:21;101741.25;;;22.15;100.00
63808;BME280;49961;43.970;22.868;2023-06-22T04:19:22;101743.56;;;22.16;100.00
63808;BME280;49961;43.970;22.868;2023-06-22T04:20:23;101742.34;;;22.17;100.00
63808;BME280;49961;43.970;22.868;2023-06-22T04:21:25;101746.13;;;22.14;100.00
63808;BME280;49961;43.970;22.868;2023-06-22T04:22:26;101656.78;;;21.59;100.00
63808;BME280;49961;43.970;22.868;2023-06-22T04:23:26;101751.28;;;22.16;100.00
63808;BME280;49961;43.970;22.868;2023-06-22T04:24:27;101752.03;;;22.16;100.00
63808;BME280;49961;43.970;22.868;2023-06-22T04:25:27;101746.19;;;22.20;100.00
63808;BME280;49961;43.970;22.868;2023-06-22T04:26:28;101744.97;;;22.21;100.00
63808;BME280;49961;43.970;22.868;2023-06-22T04:27:28;101759.16;;;22.26;100.00
63808;BME280;49961;43.970;22.868;2023-06-22T04:28:28;101746.91;;;22.29;100.00
63808;BME280;49961;43.970;22.868;2023-06-22T04:29:29;101667.63;;;21.75;100.00
63808;BME280;49961;43.970;22.868;2023-06-22T04:30:32;101750.00;;;22.31;100.00
63808;BME280;49961;43.970;22.868;2023-06-22T04:31:33;101749.53;;;22.33;100.00
63808;BME280;49961;43.970;22.868;2023-06-22T04:32:36;101752.75;;;22.40;100.00
63808;BME280;49961;43.970;22.868;2023-06-22T04:33:37;101755.72;;;22.46;100.00
63808;BME280;49961;43.970;22.868;2023-06-22T04:34:41;101660.91;;;21.87;100.00
63808;BME280;49961;43.970;22.868;2023-06-22T04:35:44;101773.41;;;22.46;100.00
63808;BME280;49961;43.970;22.868;2023-06-22T04:36:44;101761.38;;;22.46;100.00
63808;BME280;49961;43.970;22.868;2023-06-22T04:37:45;101776.41;;;22.43;100.00
63808;BME280;49961;43.970;22.868;2023-06-22T04:38:46;101766.09;;;22.25;100.00
63808;BME280;49961;43.970;22.868;2023-06-22T04:39:46;101781.06;;;22.31;100.00
63808;BME280;49961;43.970;22.868;2023-06-22T04:40:47;101786.13;;;22.27;100.00
63808;BME280;49961;43.970;22.868;2023-06-22T04:41:47;101787.72;;;22.28;100.00
63808;BME280;49961;43.970;22.868;2023-06-22T04:42:48;101781.56;;;22.30;100.00
63808;BME280;49961;43.970;22.868;2023-06-22T04:43:53;101794.31;;;22.40;100.00
63808;BME280;49961;43.970;22.868;2023-06-22T04:44:54;101816.44;;;22.41;100.00
63808;BME280;49961;43.970;22.868;2023-06-22T04:45:54;101771.25;;;22.27;100.00
63808;BME280;49961;43.970;22.868;2023-06-22T04:46:59;101783.34;;;22.42;100.00
63808;BME280;49961;43.970;22.868;2023-06-22T04:48:05;101761.72;;;22.24;100.00
63808;BME280;49961;43.970;22.868;2023-06-22T04:49:07;101758.69;;;22.28;100.00
63808;BME280;49961;43.970;22.868;2023-06-22T04:50:09;101789.28;;;22.44;100.00
63808;BME280;49961;43.970;22.868;2023-06-22T04:51:10;101781.75;;;22.26;100.00
63808;BME280;49961;43.970;22.868;2023-06-22T04:52:12;101785.19;;;22.30;100.00
63808;BME280;49961;43.970;22.868;2023-06-22T04:53:13;101786.44;;;22.29;100.00
63808;BME280;49961;43.970;22.868;2023-06-22T04:54:13;101781.16;;;22.22;100.00
63808;BME280;49961;43.970;22.868;2023-06-22T04:55:14;101699.19;;;21.64;100.00
63808;BME280;49961;43.970;22.868;2023-06-22T04:56:18;101791.88;;;22.18;100.00
63808;BME280;49961;43.970;22.868;2023-06-22T04:57:21;101735.34;;;21.75;100.00
63808;BME280;49961;43.970;22.868;2023-06-22T04:58:32;101798.50;;;22.15;100.00
63808;BME280;49961;43.970;22.868;2023-06-22T04:59:33;101800.56;;;22.15;100.00
63808;BME280;49961;43.970;22.868;2023-06-22T05:00:33;101810.19;;;22.23;100.00
63808;BME280;49961;43.970;22.868;2023-06-22T05:01:36;101809.22;;;22.26;100.00
63808;BME280;49961;43.970;22.868;2023-06-22T05:02:37;101814.38;;;22.27;100.00
63808;BME280;49961;43.970;22.868;2023-06-22T05:03:39;101816.53;;;22.32;100.00
63808;BME280;49961;43.970;22.868;2023-06-22T05:04:41;101809.72;;;22.39;100.00
63808;BME280;49961;43.970;22.868;2023-06-22T05:05:42;101816.16;;;22.39;100.00
63808;BME280;49961;43.970;22.868;2023-06-22T05:06:42;101811.09;;;22.43;100.00
63808;BME280;49961;43.970;22.868;2023-06-22T05:07:44;101810.50;;;22.39;100.00
63808;BME280;49961;43.970;22.868;2023-06-22T05:08:44;101814.53;;;22.47;100.00
63808;BME280;49961;43.970;22.868;2023-06-22T05:09:45;101818.72;;;22.52;100.00
63808;BME280;49961;43.970;22.868;2023-06-22T05:10:45;101821.56;;;22.52;100.00
63808;BME280;49961;43.970;22.868;2023-06-22T05:11:46;101821.63;;;22.57;100.00
63808;BME280;49961;43.970;22.868;2023-06-22T05:12:47;101826.63;;;22.62;100.00
63808;BME280;49961;43.970;22.868;2023-06-22T05:13:47;101832.47;;;22.59;100.00
63808;BME280;49961;43.970;22.868;2023-06-22T05:14:47;101821.16;;;22.59;100.00
63808;BME280;49961;43.970;22.868;2023-06-22T05:15:48;101826.06;;;22.58;100.00
63808;BME280;49961;43.970;22.868;2023-06-22T05:16:49;101837.72;;;22.66;100.00
63808;BME280;49961;43.970;22.868;2023-06-22T05:17:52;101835.41;;;22.64;100.00
63808;BME280;49961;43.970;22.868;2023-06-22T05:18:53;101826.72;;;22.68;100.00
63808;BME280;49961;43.970;22.868;2023-06-22T05:19:54;101830.63;;;22.70;100.00
63808;BME280;49961;43.970;22.868;2023-06-22T05:20:55;101821.56;;;22.66;100.00